createdAt,value
2023-04-26T00:01:28.610Z,4.30
2023-04-26T00:03:55.867Z,4.20
2023-04-26T00:06:22.209Z,4.40
2023-04-26T00:08:48.297Z,4.30
2023-04-26T00:11:14.293Z,4.80
2023-04-26T00:13:40.657Z,4.10
2023-04-26T00:16:06.879Z,4.30
2023-04-26T00:18:33.441Z,4.30
2023-04-26T00:21:02.159Z,4.60
2023-04-26T00:23:28.197Z,3.50
2023-04-26T00:25:54.297Z,5.40
2023-04-26T00:28:20.896Z,4.40
2023-04-26T00:30:48.347Z,4.30
2023-04-26T00:33:14.582Z,3.70
2023-04-26T00:35:40.708Z,3.90
2023-04-26T00:38:07.216Z,3.70
2023-04-26T00:40:34.916Z,3.90
2023-04-26T00:43:02.781Z,4.20
2023-04-26T00:45:28.957Z,4.00
2023-04-26T00:47:55.517Z,4.50
2023-04-26T00:50:21.722Z,4.90
2023-04-26T00:52:48.419Z,4.60
2023-04-26T00:55:15.695Z,5.10
2023-04-26T00:57:42.953Z,5.00
2023-04-26T01:00:09.691Z,3.70
2023-04-26T01:02:37.126Z,5.00
2023-04-26T01:05:04.561Z,4.60
2023-04-26T01:07:31.123Z,4.70
2023-04-26T01:09:57.755Z,4.60
2023-04-26T01:12:24.239Z,4.60
2023-04-26T01:14:51.334Z,4.40
2023-04-26T01:17:17.659Z,4.10
2023-04-26T01:19:53.173Z,5.30
2023-04-26T01:22:19.261Z,4.70
2023-04-26T01:24:54.201Z,5.70
2023-04-26T01:27:22.486Z,4.90
2023-04-26T01:29:53.375Z,5.20
2023-04-26T01:32:19.461Z,5.40
2023-04-26T01:34:47.757Z,5.20
2023-04-26T01:37:13.983Z,5.40
2023-04-26T01:39:40.226Z,4.80
2023-04-26T01:42:06.936Z,5.20
2023-04-26T01:44:32.968Z,4.50
2023-04-26T01:46:58.997Z,5.00
2023-04-26T01:49:25.263Z,4.60
2023-04-26T01:51:54.473Z,5.50
2023-04-26T01:54:20.671Z,4.50
2023-04-26T01:56:47.159Z,4.40
2023-04-26T01:59:13.245Z,4.80
2023-04-26T02:01:45.675Z,5.00
2023-04-26T02:04:11.970Z,5.00
2023-04-26T02:06:38.179Z,5.00
2023-04-26T02:09:04.650Z,4.70
2023-04-26T02:11:33.118Z,4.50
2023-04-26T02:13:59.288Z,5.30
2023-04-26T02:16:26.519Z,5.80
2023-04-26T02:18:53.191Z,5.40
2023-04-26T02:21:21.006Z,5.10
2023-04-26T02:23:47.474Z,4.60
2023-04-26T02:26:14.541Z,4.40
2023-04-26T02:28:45.664Z,4.60
2023-04-26T02:31:11.763Z,5.20
2023-04-26T02:33:37.830Z,5.00
2023-04-26T02:36:05.590Z,5.10
2023-04-26T02:38:36.131Z,6.10
2023-04-26T02:41:03.529Z,5.30
2023-04-26T02:43:29.727Z,5.40
2023-04-26T02:45:58.205Z,6.00
2023-04-26T02:48:26.655Z,5.40
2023-04-26T02:50:52.734Z,5.60
2023-04-26T02:53:18.761Z,5.50
2023-04-26T02:55:45.624Z,5.30
2023-04-26T02:58:12.040Z,5.80
2023-04-26T03:00:38.181Z,6.10
2023-04-26T03:03:04.422Z,5.90
2023-04-26T03:05:30.827Z,6.00
2023-04-26T03:07:59.171Z,6.80
2023-04-26T03:10:25.263Z,6.30
2023-04-26T03:12:51.384Z,5.20
2023-04-26T03:15:17.846Z,6.70
2023-04-26T03:17:44.016Z,6.30
2023-04-26T03:20:13.273Z,6.20
2023-04-26T03:22:39.626Z,6.20
2023-04-26T03:25:07.172Z,6.80
2023-04-26T03:27:38.280Z,7.30
2023-04-26T03:30:05.212Z,7.50
2023-04-26T03:32:31.306Z,6.90
2023-04-26T03:34:58.068Z,7.90
2023-04-26T03:37:24.141Z,7.80
2023-04-26T03:39:52.015Z,6.10
2023-04-26T03:42:18.266Z,6.20
2023-04-26T03:44:44.328Z,6.50
2023-04-26T03:47:10.380Z,6.90
2023-04-26T03:49:36.529Z,7.00
2023-04-26T03:52:02.966Z,7.40
2023-04-26T03:54:29.198Z,7.90
2023-04-26T03:56:55.242Z,8.50
2023-04-26T03:59:21.285Z,8.40
2023-04-26T04:01:47.358Z,7.60
2023-04-26T04:04:15.969Z,8.00
2023-04-26T04:06:42.680Z,7.80
2023-04-26T04:09:08.708Z,9.40
2023-04-26T04:11:37.107Z,8.30
2023-04-26T04:14:07.973Z,8.20
2023-04-26T04:16:34.097Z,8.30
2023-04-26T04:19:00.226Z,8.90
2023-04-26T04:21:27.130Z,9.60
2023-04-26T04:23:53.208Z,8.40
2023-04-26T04:26:21.682Z,9.20
2023-04-26T04:28:48.080Z,9.00
2023-04-26T04:31:14.437Z,8.10
2023-04-26T04:33:40.971Z,8.80
2023-04-26T04:36:07.771Z,9.20
2023-04-26T04:38:33.982Z,9.50
2023-04-26T04:41:00.181Z,9.90
2023-04-26T04:43:27.368Z,10.00
2023-04-26T04:45:53.490Z,11.00
2023-04-26T04:48:20.896Z,10.30
2023-04-26T04:50:47.252Z,10.20
2023-04-26T04:53:16.701Z,9.10
2023-04-26T04:55:42.941Z,9.50
2023-04-26T04:58:14.153Z,8.90
2023-04-26T05:00:40.229Z,9.00
2023-04-26T05:03:09.093Z,9.70
2023-04-26T05:05:35.341Z,10.50
2023-04-26T05:08:01.381Z,10.00
2023-04-26T05:10:27.533Z,10.10
2023-04-26T05:12:53.641Z,10.90
2023-04-26T05:15:19.710Z,9.90
2023-04-26T05:17:45.917Z,10.70
2023-04-26T05:20:12.929Z,10.40
2023-04-26T05:22:39.383Z,9.70
2023-04-26T05:25:09.993Z,10.50
2023-04-26T05:27:37.120Z,10.30
2023-04-26T05:30:05.271Z,10.80
2023-04-26T05:32:31.836Z,9.20
2023-04-26T05:34:58.122Z,9.30
2023-04-26T05:37:24.509Z,10.60
2023-04-26T05:39:50.554Z,9.40
2023-04-26T05:42:18.031Z,10.10
2023-04-26T05:44:44.484Z,9.50
2023-04-26T05:47:12.779Z,9.80
2023-04-26T05:49:38.999Z,9.50
2023-04-26T05:52:05.201Z,9.20
2023-04-26T05:54:34.072Z,9.00
2023-04-26T05:57:00.187Z,9.20
2023-04-26T05:59:26.365Z,10.00
2023-04-26T06:01:52.688Z,8.80
2023-04-26T06:04:18.976Z,8.10
2023-04-26T06:06:45.505Z,8.50
2023-04-26T06:09:11.612Z,8.90
2023-04-26T06:11:37.686Z,9.10
2023-04-26T06:14:04.293Z,8.20
2023-04-26T06:16:30.393Z,8.90
2023-04-26T06:18:56.565Z,7.00
2023-04-26T06:21:22.699Z,6.20
2023-04-26T06:23:48.962Z,7.10
2023-04-26T06:26:15.463Z,6.10
2023-04-26T06:28:42.278Z,6.30
2023-04-26T06:31:08.499Z,5.30
2023-04-26T06:33:34.883Z,6.10
2023-04-26T06:36:00.935Z,6.80
2023-04-26T06:38:27.418Z,5.40
2023-04-26T06:40:53.512Z,5.20
2023-04-26T06:43:19.671Z,4.70
2023-04-26T06:45:45.945Z,4.60
2023-04-26T06:48:12.436Z,5.60
2023-04-26T06:50:39.470Z,5.00
2023-04-26T06:53:05.773Z,4.60
2023-04-26T06:55:32.581Z,4.70
2023-04-26T06:57:59.976Z,4.60
2023-04-26T07:00:26.221Z,4.50
2023-04-26T07:02:52.487Z,4.80
2023-04-26T07:05:18.834Z,4.70
2023-04-26T07:07:45.142Z,4.90
2023-04-26T07:10:11.589Z,4.20
2023-04-26T07:12:38.347Z,4.30
2023-04-26T07:15:06.202Z,3.80
2023-04-26T07:17:32.723Z,3.90
2023-04-26T07:19:58.853Z,3.40
2023-04-26T07:22:25.092Z,4.10
2023-04-26T07:24:51.180Z,4.00
2023-04-26T07:27:17.388Z,3.30
2023-04-26T07:29:43.399Z,3.20
2023-04-26T07:32:09.686Z,3.00
2023-04-26T07:34:36.399Z,2.60
2023-04-26T07:37:02.877Z,2.20
2023-04-26T07:39:28.978Z,2.40
2023-04-26T07:41:55.053Z,2.30
2023-04-26T07:44:21.791Z,2.20
2023-04-26T07:46:47.919Z,2.50
2023-04-26T07:49:14.041Z,2.20
2023-04-26T07:51:43.460Z,2.80
2023-04-26T07:54:09.581Z,2.20
2023-04-26T07:56:35.711Z,2.20
2023-04-26T07:59:02.289Z,2.00
2023-04-26T08:01:28.597Z,2.90
2023-04-26T08:03:55.737Z,2.80
2023-04-26T08:06:22.496Z,2.60
2023-04-26T08:08:50.152Z,1.90
2023-04-26T08:11:16.494Z,1.90
2023-04-26T08:13:45.891Z,1.50
2023-04-26T08:16:12.220Z,1.70
2023-04-26T08:18:38.662Z,1.80
2023-04-26T08:21:04.913Z,1.60
2023-04-26T08:23:38.049Z,1.70
2023-04-26T08:26:04.165Z,2.20
2023-04-26T08:28:30.320Z,1.70
2023-04-26T08:30:56.521Z,1.70
2023-04-26T08:33:22.617Z,1.50
2023-04-26T08:35:48.677Z,1.30
2023-04-26T08:38:14.907Z,1.80
2023-04-26T08:40:48.719Z,2.10
2023-04-26T08:43:16.756Z,2.20
2023-04-26T08:45:46.146Z,3.20
2023-04-26T08:48:17.301Z,2.30
2023-04-26T08:50:45.946Z,2.50
2023-04-26T08:53:18.584Z,2.20
2023-04-26T08:55:48.965Z,2.00
2023-04-26T08:58:16.162Z,2.30
2023-04-26T09:00:45.881Z,1.50
2023-04-26T09:03:12.661Z,2.10
2023-04-26T09:05:44.993Z,2.20
2023-04-26T09:08:21.505Z,2.00
2023-04-26T09:10:47.711Z,2.10
2023-04-26T09:13:13.923Z,1.80
2023-04-26T09:15:42.531Z,2.20
2023-04-26T09:18:19.761Z,2.00
2023-04-26T09:21:03.761Z,1.90
2023-04-26T09:23:30.375Z,1.90
2023-04-26T09:25:56.407Z,2.40
2023-04-26T09:28:25.805Z,2.40
2023-04-26T09:30:51.934Z,2.00
2023-04-26T09:33:20.937Z,2.70
2023-04-26T09:35:47.143Z,2.60
2023-04-26T09:38:15.389Z,3.90
2023-04-26T09:40:50.971Z,1.70
2023-04-26T09:43:18.046Z,2.00
2023-04-26T09:45:54.572Z,1.90
2023-04-26T09:48:22.744Z,1.90
2023-04-26T09:50:54.324Z,2.20
2023-04-26T09:53:47.406Z,2.10
2023-04-26T09:56:21.374Z,1.80
2023-04-26T09:58:48.140Z,1.50
2023-04-26T10:01:15.801Z,1.90
2023-04-26T10:03:43.348Z,1.80
2023-04-26T10:06:09.619Z,2.00
2023-04-26T10:08:36.036Z,2.10
2023-04-26T10:11:04.607Z,2.40
2023-04-26T10:13:35.323Z,1.80
2023-04-26T10:16:02.880Z,2.00
2023-04-26T10:18:30.864Z,1.70
2023-04-26T10:21:00.945Z,1.90
2023-04-26T10:23:27.366Z,2.10
2023-04-26T10:25:54.218Z,1.90
2023-04-26T10:28:39.269Z,2.00
2023-04-26T10:31:07.190Z,1.90
2023-04-26T10:33:36.763Z,2.10
2023-04-26T10:36:08.824Z,2.20
2023-04-26T10:38:37.203Z,2.10
2023-04-26T10:41:28.957Z,1.90
2023-04-26T10:43:55.737Z,2.00
2023-04-26T10:46:36.848Z,2.50
2023-04-26T10:49:14.335Z,2.40
2023-04-26T10:51:40.613Z,2.30
2023-04-26T10:54:06.945Z,2.30
2023-04-26T10:56:33.067Z,2.20
2023-04-26T10:59:36.418Z,2.10
2023-04-26T11:02:10.501Z,2.30
2023-04-26T11:04:52.388Z,2.10
2023-04-26T11:07:37.115Z,3.10
2023-04-26T11:10:03.915Z,2.30
2023-04-26T11:12:30.165Z,2.40
2023-04-26T11:15:00.479Z,2.10
2023-04-26T11:17:37.145Z,2.10
2023-04-26T11:20:10.540Z,1.90
2023-04-26T11:22:41.153Z,2.20
2023-04-26T11:25:09.663Z,2.30
2023-04-26T11:27:38.458Z,2.60
2023-04-26T11:30:05.413Z,2.40
2023-04-26T11:32:32.872Z,1.90
2023-04-26T11:35:00.266Z,1.80
2023-04-26T11:37:26.712Z,1.80
2023-04-26T11:39:53.180Z,2.00
2023-04-26T11:42:24.595Z,2.30
2023-04-26T11:44:51.863Z,2.40
2023-04-26T11:47:18.266Z,2.10
2023-04-26T11:49:44.361Z,1.90
2023-04-26T11:52:10.528Z,2.20
2023-04-26T11:54:39.926Z,2.10
2023-04-26T11:57:18.888Z,2.10
2023-04-26T11:59:45.486Z,2.00
2023-04-26T12:02:14.483Z,1.80
2023-04-26T12:04:44.177Z,1.40
2023-04-26T12:07:10.633Z,1.70
2023-04-26T12:09:41.158Z,1.90
2023-04-26T12:12:07.719Z,1.80
2023-04-26T12:14:34.945Z,1.70
2023-04-26T12:17:02.596Z,1.60
2023-04-26T12:19:32.983Z,1.70
2023-04-26T12:21:59.128Z,1.60
2023-04-26T12:24:32.780Z,1.50
2023-04-26T12:27:00.388Z,1.70
2023-04-26T12:29:30.016Z,2.10
2023-04-26T12:32:02.621Z,1.90
2023-04-26T12:34:29.180Z,2.00
2023-04-26T12:36:55.572Z,2.00
2023-04-26T12:39:21.665Z,1.90
2023-04-26T12:41:48.602Z,1.90
2023-04-26T12:44:15.135Z,2.00
2023-04-26T12:46:41.434Z,2.40
2023-04-26T12:49:07.815Z,2.40
2023-04-26T12:51:34.040Z,2.30
2023-04-26T12:54:00.194Z,2.70
2023-04-26T12:56:26.562Z,2.10
2023-04-26T12:58:52.851Z,2.40
2023-04-26T13:01:19.050Z,2.50
2023-04-26T13:03:45.566Z,2.30
2023-04-26T13:06:12.360Z,2.70
2023-04-26T13:08:38.699Z,2.50
2023-04-26T13:11:04.779Z,2.10
2023-04-26T13:13:40.216Z,2.50
2023-04-26T13:16:09.730Z,2.10
2023-04-26T13:18:38.399Z,2.40
2023-04-26T13:21:05.420Z,2.60
2023-04-26T13:23:31.510Z,2.10
2023-04-26T13:25:59.675Z,2.20
2023-04-26T13:28:25.923Z,2.00
2023-04-26T13:30:52.545Z,2.60
2023-04-26T13:33:20.487Z,2.40
2023-04-26T13:35:49.018Z,2.00
2023-04-26T13:38:19.825Z,2.50
2023-04-26T13:40:49.113Z,1.70
2023-04-26T13:43:15.200Z,2.50
2023-04-26T13:45:41.271Z,2.30
2023-04-26T13:48:07.428Z,2.20
2023-04-26T13:50:36.102Z,1.60
2023-04-26T13:53:02.522Z,2.00
2023-04-26T13:55:29.370Z,2.20
2023-04-26T13:57:56.227Z,2.00
2023-04-26T14:00:22.518Z,2.40
2023-04-26T14:02:49.283Z,2.00
2023-04-26T14:05:15.971Z,1.80
2023-04-26T14:07:42.288Z,2.20
2023-04-26T14:10:09.242Z,1.90
2023-04-26T14:12:35.458Z,2.00
2023-04-26T14:15:03.691Z,2.00
2023-04-26T14:17:31.802Z,2.00
2023-04-26T14:19:57.849Z,2.00
2023-04-26T14:22:25.332Z,2.20
2023-04-26T14:24:51.290Z,2.20
2023-04-26T14:27:20.328Z,2.90
2023-04-26T14:29:46.408Z,2.00
2023-04-26T14:32:12.626Z,1.80
2023-04-26T14:34:39.369Z,1.60
2023-04-26T14:37:06.207Z,1.70
2023-04-26T14:39:32.250Z,1.60
2023-04-26T14:41:58.448Z,2.00
2023-04-26T14:44:25.585Z,2.10
2023-04-26T14:46:52.157Z,2.40
2023-04-26T14:49:19.098Z,1.80
2023-04-26T14:51:45.238Z,1.90
2023-04-26T14:54:11.462Z,2.20
2023-04-26T14:56:37.483Z,2.20
2023-04-26T14:59:03.823Z,2.10
2023-04-26T15:01:30.705Z,2.50
2023-04-26T15:04:00.021Z,2.20
2023-04-26T15:06:31.627Z,2.80
2023-04-26T15:08:57.869Z,2.10
2023-04-26T15:11:24.047Z,2.40
2023-04-26T15:13:50.236Z,2.50
2023-04-26T15:16:16.666Z,3.20
2023-04-26T15:18:42.894Z,2.20
2023-04-26T15:21:08.930Z,2.50
2023-04-26T15:23:35.470Z,2.60
2023-04-26T15:26:02.733Z,2.70
2023-04-26T15:28:28.866Z,2.10
2023-04-26T15:31:04.963Z,2.50
2023-04-26T15:33:31.828Z,3.20
2023-04-26T15:35:58.109Z,2.20
2023-04-26T15:38:27.193Z,2.00
2023-04-26T15:40:55.557Z,2.30
2023-04-26T15:43:21.631Z,2.70
2023-04-26T15:45:49.056Z,1.90
2023-04-26T15:48:15.422Z,2.90
2023-04-26T15:50:41.654Z,2.30
2023-04-26T15:53:08.337Z,2.10
2023-04-26T15:55:34.526Z,2.60
2023-04-26T15:58:00.629Z,2.00
2023-04-26T16:00:27.912Z,2.50
2023-04-26T16:02:54.329Z,2.30
2023-04-26T16:05:20.538Z,2.30
2023-04-26T16:07:49.577Z,2.20
2023-04-26T16:10:15.755Z,2.40
2023-04-26T16:12:43.781Z,2.50
2023-04-26T16:15:10.626Z,2.50
2023-04-26T16:17:37.536Z,2.90
2023-04-26T16:20:06.208Z,2.90
2023-04-26T16:22:33.051Z,2.40
2023-04-26T16:24:59.762Z,2.30
2023-04-26T16:27:28.897Z,2.30
2023-04-26T16:29:55.072Z,2.50
2023-04-26T16:32:21.898Z,2.90
2023-04-26T16:34:51.618Z,2.10
2023-04-26T16:37:17.674Z,2.10
2023-04-26T16:39:43.825Z,2.20
2023-04-26T16:42:10.152Z,2.10
2023-04-26T16:44:36.389Z,1.90
2023-04-26T16:47:03.357Z,1.90
2023-04-26T16:49:29.462Z,2.00
2023-04-26T16:51:58.318Z,2.20
2023-04-26T16:54:27.974Z,2.40
2023-04-26T16:56:56.454Z,2.30
2023-04-26T16:59:22.687Z,2.30
2023-04-26T17:01:52.678Z,2.60
2023-04-26T17:04:19.384Z,2.10
2023-04-26T17:06:45.700Z,2.30
2023-04-26T17:09:12.345Z,2.30
2023-04-26T17:11:42.770Z,2.30
2023-04-26T17:14:09.337Z,2.10
2023-04-26T17:16:38.218Z,2.10
2023-04-26T17:19:06.592Z,2.80
2023-04-26T17:21:32.644Z,2.30
2023-04-26T17:23:58.729Z,1.90
2023-04-26T17:26:24.868Z,2.00
2023-04-26T17:28:54.066Z,1.70
2023-04-26T17:31:20.149Z,2.00
2023-04-26T17:33:46.265Z,2.00
2023-04-26T17:36:12.436Z,1.80
2023-04-26T17:38:38.492Z,1.90
2023-04-26T17:41:04.717Z,1.70
2023-04-26T17:43:33.528Z,1.90
2023-04-26T17:46:02.027Z,1.80
2023-04-26T17:48:28.642Z,1.70
2023-04-26T17:50:54.947Z,1.60
2023-04-26T17:53:22.189Z,2.10
2023-04-26T17:55:49.063Z,2.00
2023-04-26T17:58:15.322Z,2.20
2023-04-26T18:00:41.545Z,1.60
2023-04-26T18:03:11.523Z,1.70
2023-04-26T18:05:38.041Z,1.60
2023-04-26T18:08:04.138Z,1.90
2023-04-26T18:10:30.268Z,2.10
2023-04-26T18:12:56.305Z,2.20
2023-04-26T18:15:25.613Z,2.30
2023-04-26T18:17:51.711Z,2.10
2023-04-26T18:20:17.953Z,1.80
2023-04-26T18:22:46.343Z,2.20
2023-04-26T18:25:12.585Z,2.20
2023-04-26T18:27:38.830Z,2.80
2023-04-26T18:30:06.303Z,2.30
2023-04-26T18:32:34.814Z,2.20
2023-04-26T18:35:05.619Z,2.60
2023-04-26T18:37:31.721Z,2.60
2023-04-26T18:40:00.651Z,1.90
2023-04-26T18:42:26.884Z,1.70
2023-04-26T18:44:52.922Z,1.80
2023-04-26T18:47:19.012Z,2.50
2023-04-26T18:49:47.572Z,1.80
2023-04-26T18:52:13.689Z,2.00
2023-04-26T18:54:39.971Z,1.90
2023-04-26T18:57:06.417Z,1.90
2023-04-26T18:59:32.660Z,2.20
2023-04-26T19:01:58.879Z,1.60
2023-04-26T19:04:28.180Z,1.90
2023-04-26T19:06:54.528Z,1.90
2023-04-26T19:09:21.180Z,1.90
2023-04-26T19:11:47.297Z,1.70
2023-04-26T19:14:13.376Z,2.00
2023-04-26T19:16:39.844Z,1.80
2023-04-26T19:19:08.241Z,2.30
2023-04-26T19:21:34.548Z,2.70
2023-04-26T19:24:04.116Z,2.40
2023-04-26T19:26:30.381Z,2.70
2023-04-26T19:28:59.621Z,2.90
2023-04-26T19:31:26.052Z,2.40
2023-04-26T19:33:52.067Z,1.90
2023-04-26T19:36:18.142Z,2.40
2023-04-26T19:38:44.269Z,2.20
2023-04-26T19:41:10.313Z,2.40
2023-04-26T19:43:36.385Z,2.40
2023-04-26T19:46:10.984Z,2.10
2023-04-26T19:51:06.500Z,2.10
2023-04-26T19:53:32.560Z,2.30
2023-04-26T19:56:01.269Z,2.40
2023-04-26T19:58:27.350Z,2.40
2023-04-26T20:00:53.450Z,2.20
2023-04-26T20:03:19.840Z,2.60
2023-04-26T20:05:49.414Z,2.60
2023-04-26T20:08:16.354Z,2.90
2023-04-26T20:10:42.325Z,2.70
2023-04-26T20:13:08.399Z,2.50
2023-04-26T20:15:34.460Z,2.70
2023-04-26T20:18:01.687Z,3.00
2023-04-26T20:20:27.960Z,2.30
2023-04-26T20:22:54.043Z,2.60
2023-04-26T20:25:20.582Z,3.10
2023-04-26T20:27:49.126Z,3.10
2023-04-26T20:30:15.391Z,2.80
2023-04-26T20:32:41.852Z,2.80
2023-04-26T20:35:08.567Z,2.40
2023-04-26T20:37:35.441Z,2.70
2023-04-26T20:40:05.034Z,2.40
2023-04-26T20:42:31.185Z,2.20
2023-04-26T20:47:23.490Z,2.20
2023-04-26T20:49:49.730Z,2.30
2023-04-26T20:52:16.603Z,1.80
2023-04-26T20:54:42.598Z,1.80
2023-04-26T20:57:11.353Z,2.70
2023-04-26T20:59:40.796Z,1.70
2023-04-26T21:02:07.402Z,2.20
2023-04-26T21:04:34.790Z,2.00
2023-04-26T21:07:04.301Z,2.40
2023-04-26T21:09:30.343Z,1.90
2023-04-26T21:11:56.318Z,2.10
2023-04-26T21:14:25.718Z,2.30
2023-04-26T21:16:51.731Z,1.90
2023-04-26T21:19:17.886Z,1.70
2023-04-26T21:21:43.892Z,2.00
2023-04-26T21:24:12.572Z,2.40
2023-04-26T21:26:40.912Z,2.20
2023-04-26T21:29:07.290Z,2.70
2023-04-26T21:31:33.613Z,2.70
2023-04-26T21:34:02.244Z,1.90
2023-04-26T21:36:28.274Z,2.40
2023-04-26T21:38:56.741Z,2.40
2023-04-26T21:41:25.128Z,2.50
2023-04-26T21:43:52.386Z,2.70
2023-04-26T21:46:19.087Z,2.50
2023-04-26T21:48:45.221Z,2.40
2023-04-26T21:51:11.510Z,3.20
2023-04-26T21:53:37.530Z,3.40
2023-04-26T21:56:07.238Z,3.10
2023-04-26T21:58:33.469Z,2.80
2023-04-26T22:01:07.457Z,2.60
2023-04-26T22:03:33.785Z,3.00
2023-04-26T22:06:00.058Z,2.60
2023-04-26T22:08:26.276Z,2.60
2023-04-26T22:10:52.325Z,3.30
2023-04-26T22:13:18.579Z,3.00
2023-04-26T22:15:44.569Z,3.30
2023-04-26T22:18:10.697Z,2.60
2023-04-26T22:20:38.930Z,2.60
2023-04-26T22:23:05.577Z,2.80
2023-04-26T22:25:31.701Z,2.50
2023-04-26T22:27:57.769Z,2.40
2023-04-26T22:30:25.803Z,2.40
2023-04-26T22:32:56.694Z,3.00
2023-04-26T22:35:24.111Z,3.10
2023-04-26T22:37:50.557Z,3.10
2023-04-26T22:40:17.030Z,2.90
2023-04-26T22:42:43.443Z,2.80
2023-04-26T22:45:10.827Z,2.70
2023-04-26T22:47:37.800Z,3.20
2023-04-26T22:50:05.502Z,3.00
2023-04-26T22:52:32.217Z,2.50
2023-04-26T22:55:01.482Z,3.00
2023-04-26T22:57:28.859Z,2.80
2023-04-26T22:59:54.886Z,2.80
2023-04-26T23:02:21.208Z,3.20
2023-04-26T23:04:48.112Z,2.80
2023-04-26T23:07:14.257Z,3.20
2023-04-26T23:09:40.506Z,3.50
2023-04-26T23:12:06.636Z,3.50
2023-04-26T23:14:34.845Z,2.40
2023-04-26T23:17:02.047Z,2.30
2023-04-26T23:19:32.431Z,2.90
2023-04-26T23:21:58.535Z,3.00
2023-04-26T23:24:24.677Z,3.00
2023-04-26T23:26:50.753Z,3.10
2023-04-26T23:29:16.962Z,2.50
2023-04-26T23:31:43.299Z,2.70
2023-04-26T23:34:09.444Z,2.90
2023-04-26T23:36:35.481Z,2.80
2023-04-26T23:39:01.552Z,3.40
2023-04-26T23:41:27.619Z,2.90
2023-04-26T23:43:53.630Z,3.60
2023-04-26T23:46:19.841Z,3.20
2023-04-26T23:48:46.142Z,4.10
2023-04-26T23:51:12.343Z,3.60
2023-04-26T23:53:39.143Z,3.70
2023-04-26T23:56:06.200Z,3.80
2023-04-26T23:58:32.339Z,4.20
